Time;durP1;ratioP1;P1;durP2;ratioP2;P2;SDS_P1;SDS_P2;PMS_P1;PMS_P2;Temp;Humidity;BMP_temperature;BMP_pressure;BME280_temperature;BME280_humidity;BME280_pressure;Samples;Min_cycle;Max_cycle;Signal;HPM_P1;HPM_P2
2021/07/08 00:01:23;;;;;;;;;;;25.20;57.80;;;;;;1575510;75;1160;-57
2021/07/08 00:03:25;;;;;;;;;;;25.10;57.80;;;;;;1570480;75;1925;-56
2021/07/08 00:05:27;;;;;;;;;;;25.10;57.80;;;;;;1580042;75;694;-57
2021/07/08 00:07:29;;;;;;;;;;;25.10;57.60;;;;;;1569312;75;690;-57
2021/07/08 00:09:31;;;;;;;;;;;25.10;57.60;;;;;;1577785;75;763;-59
2021/07/08 00:11:33;;;;;;;;;;;25.10;57.60;;;;;;1569919;75;1099;-58
2021/07/08 00:13:35;;;;;;;;;;;25.10;57.60;;;;;;1563486;75;646;-58
2021/07/08 00:15:37;;;;;;;;;;;25.10;57.60;;;;;;1560310;75;736;-57
2021/07/08 00:17:39;;;;;;;;;;;25.10;57.60;;;;;;1581672;75;710;-58
2021/07/08 00:19:41;;;;;;;;;;;25.20;57.60;;;;;;1571966;75;805;-57
2021/07/08 00:21:43;;;;;;;;;;;25.10;57.60;;;;;;1575162;75;1199;-57
2021/07/08 00:23:45;;;;;;;;;;;25.10;57.50;;;;;;1577961;74;1921;-58
2021/07/08 00:25:47;;;;;;;;;;;25.10;57.60;;;;;;1571654;75;717;-58
2021/07/08 00:27:49;;;;;;;;;;;25.20;57.80;;;;;;1570937;75;808;-58
2021/07/08 00:29:51;;;;;;;;;;;25.10;57.80;;;;;;1570816;75;722;-59
2021/07/08 00:31:53;;;;;;;;;;;25.10;57.80;;;;;;1562090;75;1128;-57
2021/07/08 00:33:55;;;;;;;;;;;25.20;57.80;;;;;;1564605;75;703;-57
2021/07/08 00:35:57;;;;;;;;;;;25.20;57.80;;;;;;1573354;75;777;-58
2021/07/08 00:37:59;;;;;;;;;;;25.10;57.70;;;;;;1565682;75;721;-58
2021/07/08 00:40:00;;;;;;;;;;;25.20;57.70;;;;;;1567678;75;690;-58
2021/07/08 00:42:02;;;;;;;;;;;25.20;57.70;;;;;;1570895;75;1069;-57
2021/07/08 00:44:05;;;;;;;;;;;25.10;57.60;;;;;;1571975;75;1928;-57
2021/07/08 00:46:07;;;;;;;;;;;25.20;57.60;;;;;;1577227;75;779;-57
2021/07/08 00:48:08;;;;;;;;;;;25.20;57.50;;;;;;1575479;75;1042;-57
2021/07/08 00:50:10;;;;;;;;;;;25.20;57.60;;;;;;1580169;71;216488;-80
2021/07/08 00:52:12;;;;;;;;;;;25.10;57.60;;;;;;1591472;73;635;-81
2021/07/08 00:54:14;;;;;;;;;;;25.20;57.60;;;;;;1590616;73;709;-79
2021/07/08 00:56:16;;;;;;;;;;;25.20;57.60;;;;;;1595502;74;689;-81
2021/07/08 00:58:18;;;;;;;;;;;25.20;57.60;;;;;;1591108;73;1195;-78
2021/07/08 01:00:24;;;;;;;;;;;25.10;57.60;;;;;;1595599;74;694;-78
2021/07/08 01:02:26;;;;;;;;;;;25.20;57.60;;;;;;1581908;72;215754;-59
2021/07/08 01:04:28;;;;;;;;;;;25.20;57.60;;;;;;1566722;74;1942;-59
2021/07/08 01:06:30;;;;;;;;;;;25.20;57.60;;;;;;1558130;74;747;-59
2021/07/08 01:08:32;;;;;;;;;;;25.20;57.50;;;;;;1579847;74;766;-59
2021/07/08 01:10:34;;;;;;;;;;;25.20;57.50;;;;;;1584433;74;778;-59
2021/07/08 01:12:35;;;;;;;;;;;25.20;57.40;;;;;;1578187;73;1193;-59
2021/07/08 01:14:37;;;;;;;;;;;25.20;57.30;;;;;;1568772;74;732;-59
2021/07/08 01:16:39;;;;;;;;;;;25.20;57.20;;;;;;1570330;74;758;-59
2021/07/08 01:18:41;;;;;;;;;;;25.20;57.20;;;;;;1572830;74;769;-59
2021/07/08 01:20:44;;;;;;;;;;;25.20;57.20;;;;;;1567607;74;752;-59
2021/07/08 01:22:48;;;;;;;;;;;25.10;57.20;;;;;;1560462;74;1175;-58
2021/07/08 01:24:50;;;;;;;;;;;25.20;57.20;;;;;;1571668;74;1902;-59
2021/07/08 01:26:52;;;;;;;;;;;25.20;57.20;;;;;;1579971;74;770;-59
2021/07/08 01:28:54;;;;;;;;;;;25.20;57.20;;;;;;1577944;74;803;-59
2021/07/08 01:30:56;;;;;;;;;;;25.20;57.20;;;;;;1570336;74;747;-59
2021/07/08 01:32:58;;;;;;;;;;;25.30;57.10;;;;;;1576697;74;1089;-60
2021/07/08 01:34:59;;;;;;;;;;;25.20;57.10;;;;;;1575332;74;783;-59
2021/07/08 01:37:02;;;;;;;;;;;25.20;57.10;;;;;;1573720;74;772;-59
2021/07/08 01:39:04;;;;;;;;;;;25.20;57.10;;;;;;1581986;74;794;-59
2021/07/08 01:41:06;;;;;;;;;;;25.20;57.10;;;;;;1579464;74;805;-59
2021/07/08 01:43:08;;;;;;;;;;;25.20;57.10;;;;;;1573447;74;1049;-59
2021/07/08 01:45:12;;;;;;;;;;;25.20;57.00;;;;;;1578428;74;1943;-60
2021/07/08 01:47:13;;;;;;;;;;;25.20;57.00;;;;;;1573904;74;737;-61
2021/07/08 01:49:15;;;;;;;;;;;25.20;57.10;;;;;;1563091;74;758;-60
2021/07/08 01:51:30;;;;;;;;;;;25.20;57.10;;;;;;1575615;74;1134;-60
2021/07/08 01:53:32;;;;;;;;;;;25.10;57.10;;;;;;1564480;74;720;-60
2021/07/08 01:55:34;;;;;;;;;;;25.10;57.00;;;;;;1560626;74;770;-60
2021/07/08 01:57:38;;;;;;;;;;;25.20;57.00;;;;;;1567521;74;771;-60
2021/07/08 01:59:39;;;;;;;;;;;25.10;57.00;;;;;;1571061;74;745;-60
2021/07/08 02:01:41;;;;;;;;;;;25.20;57.10;;;;;;1575090;74;1125;-59
2021/07/08 02:03:43;;;;;;;;;;;25.10;57.20;;;;;;1574203;74;803;-59
2021/07/08 02:05:45;;;;;;;;;;;25.20;57.20;;;;;;1582472;74;1935;-59
2021/07/08 02:07:47;;;;;;;;;;;25.20;57.20;;;;;;1572125;74;731;-59
2021/07/08 02:09:49;;;;;;;;;;;25.30;57.10;;;;;;1560906;74;710;-59
2021/07/08 02:11:51;;;;;;;;;;;25.20;57.10;;;;;;1576733;74;1143;-60
2021/07/08 02:13:52;;;;;;;;;;;25.20;57.10;;;;;;1582247;74;718;-60
2021/07/08 02:15:54;;;;;;;;;;;25.20;57.00;;;;;;1576861;74;596;-60
2021/07/08 02:17:56;;;;;;;;;;;25.20;57.10;;;;;;1567193;74;730;-59
2021/07/08 02:19:58;;;;;;;;;;;25.20;57.10;;;;;;1570499;74;780;-59
2021/07/08 02:22:00;;;;;;;;;;;25.20;57.10;;;;;;1569239;74;1210;-60
2021/07/08 02:24:02;;;;;;;;;;;25.30;57.10;;;;;;1570002;74;688;-59
2021/07/08 02:26:05;;;;;;;;;;;25.30;57.00;;;;;;1560219;74;1916;-59
2021/07/08 02:28:07;;;;;;;;;;;25.30;57.00;;;;;;1570330;74;1016;-60
2021/07/08 02:30:10;;;;;;;;;;;25.20;57.00;;;;;;1572117;74;776;-60
2021/07/08 02:32:12;;;;;;;;;;;25.20;57.00;;;;;;1572500;74;1148;-60
2021/07/08 02:34:13;;;;;;;;;;;25.20;57.00;;;;;;1564840;74;902;-58
2021/07/08 02:36:15;;;;;;;;;;;25.20;56.90;;;;;;1567917;74;718;-60
2021/07/08 02:38:17;;;;;;;;;;;25.30;57.00;;;;;;1579624;74;786;-60
2021/07/08 02:40:20;;;;;;;;;;;25.20;57.00;;;;;;1572313;74;699;-60
2021/07/08 02:42:22;;;;;;;;;;;25.20;57.00;;;;;;1578887;74;1127;-59
2021/07/08 02:44:24;;;;;;;;;;;25.20;56.90;;;;;;1572149;74;1934;-59
2021/07/08 02:46:26;;;;;;;;;;;25.20;57.00;;;;;;1576916;74;773;-59
2021/07/08 02:48:28;;;;;;;;;;;25.20;56.90;;;;;;1580314;74;811;-59
2021/07/08 02:50:30;;;;;;;;;;;25.20;56.90;;;;;;1575225;74;764;-59
2021/07/08 02:52:32;;;;;;;;;;;25.20;57.00;;;;;;1570437;74;1154;-58
2021/07/08 02:54:34;;;;;;;;;;;25.20;57.10;;;;;;1564082;74;754;-59
2021/07/08 02:56:36;;;;;;;;;;;25.20;57.10;;;;;;1563230;74;766;-58
2021/07/08 02:58:38;;;;;;;;;;;25.20;57.00;;;;;;1559021;74;1087;-59
2021/07/08 03:00:40;;;;;;;;;;;25.20;57.00;;;;;;1554923;74;746;-57
2021/07/08 03:02:42;;;;;;;;;;;25.20;56.90;;;;;;1567596;74;1120;-58
2021/07/08 03:04:44;;;;;;;;;;;25.30;56.80;;;;;;1562769;74;1940;-59
2021/07/08 03:06:46;;;;;;;;;;;25.20;56.60;;;;;;1576008;74;1104;-59
2021/07/08 03:08:48;;;;;;;;;;;25.20;56.50;;;;;;1561135;74;759;-59
2021/07/08 03:10:50;;;;;;;;;;;25.20;56.50;;;;;;1564276;74;773;-59
2021/07/08 03:12:52;;;;;;;;;;;25.20;56.50;;;;;;1575519;74;1112;-59
2021/07/08 03:14:54;;;;;;;;;;;25.20;56.40;;;;;;1574077;74;890;-59
2021/07/08 03:16:56;;;;;;;;;;;25.20;56.40;;;;;;1572987;74;799;-58
2021/07/08 03:18:57;;;;;;;;;;;25.20;56.40;;;;;;1571990;74;785;-59
2021/07/08 03:20:59;;;;;;;;;;;25.10;56.50;;;;;;1569387;74;694;-60
2021/07/08 03:23:02;;;;;;;;;;;25.20;56.00;;;;;;1559545;74;1113;-60
2021/07/08 03:25:05;;;;;;;;;;;25.10;55.90;;;;;;1561129;74;1943;-59
2021/07/08 03:27:07;;;;;;;;;;;25.10;55.70;;;;;;1572652;74;790;-58
2021/07/08 03:29:09;;;;;;;;;;;25.20;55.90;;;;;;1573656;74;718;-58
2021/07/08 03:31:11;;;;;;;;;;;25.10;55.80;;;;;;1572739;74;715;-58
2021/07/08 03:33:12;;;;;;;;;;;25.20;55.80;;;;;;1578707;74;1076;-58
2021/07/08 03:35:14;;;;;;;;;;;25.20;55.90;;;;;;1564028;74;780;-57
2021/07/08 03:37:16;;;;;;;;;;;25.20;55.80;;;;;;1568133;74;799;-58
2021/07/08 03:39:18;;;;;;;;;;;25.10;55.70;;;;;;1573420;74;819;-57
2021/07/08 03:41:20;;;;;;;;;;;25.10;55.70;;;;;;1581950;74;1136;-58
2021/07/08 03:43:22;;;;;;;;;;;25.20;55.70;;;;;;1573165;74;725;-58
2021/07/08 03:45:24;;;;;;;;;;;25.10;55.70;;;;;;1571093;74;1947;-58
2021/07/08 03:47:26;;;;;;;;;;;25.10;55.80;;;;;;1566860;74;742;-58
2021/07/08 03:49:28;;;;;;;;;;;25.10;55.70;;;;;;1574149;74;787;-58
2021/07/08 03:51:29;;;;;;;;;;;25.10;55.70;;;;;;1569791;74;1129;-58
2021/07/08 03:53:31;;;;;;;;;;;25.10;55.70;;;;;;1573509;74;752;-59
2021/07/08 03:55:33;;;;;;;;;;;25.20;55.70;;;;;;1563896;74;674;-59
2021/07/08 03:57:35;;;;;;;;;;;25.10;55.70;;;;;;1576725;74;772;-59
2021/07/08 03:59:37;;;;;;;;;;;25.10;55.70;;;;;;1563246;74;796;-60
2021/07/08 04:01:41;;;;;;;;;;;25.10;55.60;;;;;;1573437;74;1145;-59
2021/07/08 04:03:42;;;;;;;;;;;25.10;55.50;;;;;;1561965;74;1974;-59
2021/07/08 04:05:45;;;;;;;;;;;25.20;55.50;;;;;;1561613;74;1938;-59
2021/07/08 04:07:47;;;;;;;;;;;25.10;55.50;;;;;;1573539;74;783;-59
2021/07/08 04:09:48;;;;;;;;;;;25.10;55.30;;;;;;1579352;74;782;-60
2021/07/08 04:11:50;;;;;;;;;;;25.10;55.30;;;;;;1558004;74;1142;-60
2021/07/08 04:13:52;;;;;;;;;;;25.10;55.20;;;;;;1564112;74;699;-60
2021/07/08 04:15:54;;;;;;;;;;;25.10;55.30;;;;;;1568670;74;796;-60
2021/07/08 04:17:56;;;;;;;;;;;25.10;55.20;;;;;;1574357;74;679;-60
2021/07/08 04:19:58;;;;;;;;;;;25.10;55.10;;;;;;1569583;74;734;-60
2021/07/08 04:22:00;;;;;;;;;;;25.10;55.20;;;;;;1565358;74;1132;-60
2021/07/08 04:24:02;;;;;;;;;;;25.10;55.20;;;;;;1582612;74;809;-59
2021/07/08 04:26:04;;;;;;;;;;;25.10;55.10;;;;;;1568905;74;1939;-59
2021/07/08 04:28:06;;;;;;;;;;;25.10;55.00;;;;;;1573840;74;733;-60
2021/07/08 04:30:09;;;;;;;;;;;25.10;55.00;;;;;;1564109;74;736;-59
2021/07/08 04:32:10;;;;;;;;;;;25.00;55.00;;;;;;1562739;74;1162;-59
2021/07/08 04:34:12;;;;;;;;;;;25.00;54.90;;;;;;1575923;74;744;-58
2021/07/08 04:36:14;;;;;;;;;;;25.10;55.00;;;;;;1569809;74;787;-59
2021/07/08 04:38:17;;;;;;;;;;;25.10;55.10;;;;;;1566700;74;755;-58
2021/07/08 04:40:19;;;;;;;;;;;25.10;55.00;;;;;;1570805;74;793;-58
2021/07/08 04:42:21;;;;;;;;;;;25.10;55.00;;;;;;1560858;74;1159;-59
2021/07/08 04:44:23;;;;;;;;;;;25.00;55.00;;;;;;1571760;74;910;-58
2021/07/08 04:46:26;;;;;;;;;;;25.10;54.80;;;;;;1574060;74;1938;-60
2021/07/08 04:48:28;;;;;;;;;;;25.00;54.90;;;;;;1581463;74;788;-60
2021/07/08 04:50:31;;;;;;;;;;;25.00;55.30;;;;;;1571775;74;649;-59
2021/07/08 04:52:33;;;;;;;;;;;25.00;55.30;;;;;;1568288;74;1179;-59
2021/07/08 04:54:35;;;;;;;;;;;25.00;55.50;;;;;;1563779;74;748;-59
2021/07/08 04:56:37;;;;;;;;;;;25.10;55.50;;;;;;1574693;74;754;-59
2021/07/08 04:58:38;;;;;;;;;;;25.00;55.60;;;;;;1575440;74;761;-59
2021/07/08 05:00:40;;;;;;;;;;;25.10;55.50;;;;;;1575446;74;868;-59
2021/07/08 05:02:43;;;;;;;;;;;25.00;55.50;;;;;;1572699;74;1118;-59
2021/07/08 05:04:44;;;;;;;;;;;25.10;55.40;;;;;;1567722;74;765;-59
2021/07/08 05:06:46;;;;;;;;;;;25.10;55.20;;;;;;1570861;74;1942;-59
2021/07/08 05:08:48;;;;;;;;;;;25.00;55.30;;;;;;1573074;74;733;-59
2021/07/08 05:10:50;;;;;;;;;;;25.10;55.40;;;;;;1571200;74;709;-59
2021/07/08 05:12:52;;;;;;;;;;;25.00;55.40;;;;;;1572432;74;1066;-59
2021/07/08 05:14:54;;;;;;;;;;;25.00;55.30;;;;;;1585887;74;766;-59
2021/07/08 05:16:56;;;;;;;;;;;25.00;55.40;;;;;;1568395;74;770;-59
2021/07/08 05:18:58;;;;;;;;;;;25.10;55.40;;;;;;1575613;74;731;-57
2021/07/08 05:21:00;;;;;;;;;;;25.10;55.50;;;;;;1558429;74;725;-58
2021/07/08 05:23:04;;;;;;;;;;;25.10;54.50;;;;;;1570805;74;1088;-59
2021/07/08 05:25:06;;;;;;;;;;;25.10;54.50;;;;;;1566877;74;1693;-60
2021/07/08 05:27:11;;;;;;;;;;;25.00;54.40;;;;;;1572762;74;1930;-61
2021/07/08 05:29:11;;;;;;;;;;;25.00;54.10;;;;;;1538532;75;1694;-60
2021/07/08 05:31:13;;;;;;;;;;;25.00;53.90;;;;;;1564757;74;1128;-60
2021/07/08 05:33:15;;;;;;;;;;;25.00;53.80;;;;;;1577200;74;738;-59
2021/07/08 05:35:17;;;;;;;;;;;25.00;53.60;;;;;;1564158;74;758;-60
2021/07/08 05:37:19;;;;;;;;;;;25.00;53.50;;;;;;1572644;74;738;-60
2021/07/08 05:39:21;;;;;;;;;;;25.00;53.40;;;;;;1573848;74;809;-59
2021/07/08 05:41:23;;;;;;;;;;;24.90;53.40;;;;;;1573565;74;1139;-60
2021/07/08 05:43:24;;;;;;;;;;;24.90;53.40;;;;;;1569426;74;572;-60
2021/07/08 05:45:26;;;;;;;;;;;25.00;53.30;;;;;;1570853;74;749;-60
2021/07/08 05:47:28;;;;;;;;;;;24.90;53.30;;;;;;1571123;74;1923;-60
2021/07/08 05:49:30;;;;;;;;;;;24.90;53.30;;;;;;1563412;74;770;-59
2021/07/08 05:51:32;;;;;;;;;;;24.90;53.20;;;;;;1575541;74;1114;-60
2021/07/08 05:53:34;;;;;;;;;;;24.90;53.10;;;;;;1569284;74;693;-60
2021/07/08 05:55:36;;;;;;;;;;;24.90;53.10;;;;;;1576425;74;835;-59
2021/07/08 05:57:46;;;;;;;;;;;24.90;53.30;;;;;;1581850;74;739;-59
2021/07/08 05:59:41;;;;;;;;;;;24.90;53.20;;;;;;1571783;74;1674;-60
2021/07/08 06:01:43;;;;;;;;;;;24.90;53.20;;;;;;1573157;74;1163;-59
2021/07/08 06:03:45;;;;;;;;;;;24.90;53.20;;;;;;1573756;74;819;-59
2021/07/08 06:05:48;;;;;;;;;;;25.00;53.20;;;;;;1565323;74;1942;-59
2021/07/08 06:07:50;;;;;;;;;;;24.90;53.20;;;;;;1555929;74;828;-58
2021/07/08 06:09:52;;;;;;;;;;;24.90;53.00;;;;;;1555287;74;786;-59
2021/07/08 06:11:54;;;;;;;;;;;24.90;53.00;;;;;;1556464;74;1148;-59
2021/07/08 06:13:56;;;;;;;;;;;24.80;52.90;;;;;;1559234;74;777;-58
2021/07/08 06:15:58;;;;;;;;;;;24.90;53.00;;;;;;1574484;74;1160;-58
2021/07/08 06:17:59;;;;;;;;;;;24.80;53.00;;;;;;1571895;74;724;-58
2021/07/08 06:20:02;;;;;;;;;;;24.80;52.90;;;;;;1568033;74;773;-59
2021/07/08 06:22:04;;;;;;;;;;;24.80;53.00;;;;;;1572938;74;1136;-59
2021/07/08 06:24:08;;;;;;;;;;;24.80;53.00;;;;;;1563125;74;788;-58
2021/07/08 06:26:09;;;;;;;;;;;24.80;53.10;;;;;;1563074;74;1908;-58
2021/07/08 06:28:11;;;;;;;;;;;24.70;53.10;;;;;;1580540;74;741;-58
2021/07/08 06:30:13;;;;;;;;;;;24.80;53.10;;;;;;1574174;74;764;-58
2021/07/08 06:32:18;;;;;;;;;;;24.70;53.00;;;;;;1564637;74;1152;-58
2021/07/08 06:34:19;;;;;;;;;;;24.70;53.10;;;;;;1571496;74;1803;-58
2021/07/08 06:36:21;;;;;;;;;;;24.70;53.10;;;;;;1570652;74;762;-58
2021/07/08 06:38:22;;;;;;;;;;;24.70;53.10;;;;;;1574089;74;775;-59
2021/07/08 06:40:24;;;;;;;;;;;24.70;53.10;;;;;;1574216;74;769;-58
2021/07/08 06:42:26;;;;;;;;;;;24.60;53.00;;;;;;1570695;74;1143;-58
2021/07/08 06:44:28;;;;;;;;;;;24.70;53.20;;;;;;1566783;74;781;-59
2021/07/08 06:46:31;;;;;;;;;;;24.70;53.20;;;;;;1574195;74;1902;-59
2021/07/08 06:48:33;;;;;;;;;;;24.70;53.20;;;;;;1574137;74;773;-58
2021/07/08 06:50:36;;;;;;;;;;;24.70;53.20;;;;;;1569605;72;219059;-62
2021/07/08 06:52:38;;;;;;;;;;;24.70;53.20;;;;;;1577230;73;744;-62
2021/07/08 06:54:40;;;;;;;;;;;24.60;53.10;;;;;;1572618;73;726;-61
2021/07/08 06:56:42;;;;;;;;;;;24.70;53.30;;;;;;1582383;73;734;-62
2021/07/08 06:58:44;;;;;;;;;;;24.70;53.30;;;;;;1588842;73;814;-63
2021/07/08 07:00:46;;;;;;;;;;;24.60;53.20;;;;;;1591600;73;1204;-63
2021/07/08 07:02:48;;;;;;;;;;;24.60;53.20;;;;;;1578978;73;724;-64
2021/07/08 07:04:50;;;;;;;;;;;24.70;53.40;;;;;;1574285;73;842;-63
2021/07/08 07:06:51;;;;;;;;;;;24.60;53.40;;;;;;1586092;73;1920;-62
2021/07/08 07:08:53;;;;;;;;;;;24.60;53.30;;;;;;1585771;73;695;-63
2021/07/08 07:10:55;;;;;;;;;;;24.60;53.30;;;;;;1579259;73;1248;-63
2021/07/08 07:12:58;;;;;;;;;;;24.60;53.40;;;;;;1585015;73;784;-63
2021/07/08 07:14:59;;;;;;;;;;;24.60;53.40;;;;;;1577791;73;715;-62
2021/07/08 07:17:01;;;;;;;;;;;24.70;53.50;;;;;;1572903;73;699;-62
2021/07/08 07:19:03;;;;;;;;;;;24.60;53.40;;;;;;1585584;73;786;-62
2021/07/08 07:21:09;;;;;;;;;;;24.60;53.50;;;;;;1576576;73;1115;-62
2021/07/08 07:23:09;;;;;;;;;;;24.60;53.60;;;;;;1569217;73;954;-63
2021/07/08 07:25:11;;;;;;;;;;;24.60;53.70;;;;;;1570184;73;706;-63
2021/07/08 07:27:13;;;;;;;;;;;24.50;53.90;;;;;;1565907;75;1941;-64
2021/07/08 07:29:15;;;;;;;;;;;24.60;53.80;;;;;;1581462;73;730;-62
2021/07/08 07:31:16;;;;;;;;;;;24.70;54.00;;;;;;1569780;73;1127;-63
2021/07/08 07:33:18;;;;;;;;;;;24.70;53.90;;;;;;1582650;73;778;-63
2021/07/08 07:35:20;;;;;;;;;;;24.80;53.90;;;;;;1571943;73;670;-64
2021/07/08 07:37:22;;;;;;;;;;;24.70;54.00;;;;;;1575337;73;739;-60
2021/07/08 07:39:24;;;;;;;;;;;24.70;53.90;;;;;;1571969;73;779;-63
2021/07/08 07:41:26;;;;;;;;;;;24.80;53.80;;;;;;1581289;73;1138;-63
2021/07/08 07:43:28;;;;;;;;;;;24.80;53.80;;;;;;1574921;73;721;-68
2021/07/08 07:45:30;;;;;;;;;;;24.80;53.80;;;;;;1583302;73;726;-66
2021/07/08 07:47:32;;;;;;;;;;;24.80;53.80;;;;;;1584442;73;1933;-66
2021/07/08 07:49:34;;;;;;;;;;;24.70;53.80;;;;;;1569755;73;684;-66
2021/07/08 07:51:36;;;;;;;;;;;24.80;53.80;;;;;;1582293;73;1224;-65
2021/07/08 07:53:37;;;;;;;;;;;24.70;53.90;;;;;;1579444;73;724;-66
2021/07/08 07:55:40;;;;;;;;;;;24.60;53.90;;;;;;1587532;73;660;-65
2021/07/08 07:57:41;;;;;;;;;;;24.70;53.90;;;;;;1581943;73;743;-65
2021/07/08 07:59:43;;;;;;;;;;;24.70;53.90;;;;;;1579369;74;599;-67
2021/07/08 08:01:45;;;;;;;;;;;24.70;53.90;;;;;;1584520;73;1201;-63
2021/07/08 08:03:49;;;;;;;;;;;24.70;53.90;;;;;;1588846;73;721;-65
2021/07/08 08:08:27;;;;;;;;;;;24.70;53.90;;;;;;1586819;73;1610;-67
2021/07/08 08:10:21;;;;;;;;;;;24.80;54.00;;;;;;1588728;73;1627;-66
2021/07/08 08:12:23;;;;;;;;;;;24.80;54.00;;;;;;1588891;73;807;-67
2021/07/08 08:14:26;;;;;;;;;;;24.80;54.10;;;;;;1579559;73;791;-66
2021/07/08 08:16:28;;;;;;;;;;;24.80;54.00;;;;;;1570183;73;727;-67
2021/07/08 08:18:30;;;;;;;;;;;24.70;54.00;;;;;;1578073;73;791;-68
2021/07/08 08:20:32;;;;;;;;;;;24.80;54.00;;;;;;1580223;73;1135;-66
2021/07/08 08:22:37;;;;;;;;;;;24.80;54.00;;;;;;1577227;73;683;-66
2021/07/08 08:24:38;;;;;;;;;;;24.80;54.00;;;;;;1581102;73;949;-66
2021/07/08 08:26:40;;;;;;;;;;;24.80;54.20;;;;;;1580240;73;1939;-66
2021/07/08 08:28:42;;;;;;;;;;;24.80;54.10;;;;;;1586707;73;712;-66
2021/07/08 08:30:44;;;;;;;;;;;24.80;54.10;;;;;;1584825;73;1143;-66
2021/07/08 08:32:46;;;;;;;;;;;24.80;54.10;;;;;;1583929;73;746;-66
2021/07/08 08:34:48;;;;;;;;;;;24.80;54.20;;;;;;1579787;73;785;-66
2021/07/08 08:36:50;;;;;;;;;;;24.70;54.20;;;;;;1580197;73;754;-65
2021/07/08 08:38:52;;;;;;;;;;;24.70;54.20;;;;;;1575038;73;675;-66
2021/07/08 08:40:55;;;;;;;;;;;24.60;54.00;;;;;;1570498;73;1118;-65
2021/07/08 08:42:58;;;;;;;;;;;24.80;54.20;;;;;;1583934;73;783;-66
2021/07/08 08:44:59;;;;;;;;;;;24.80;54.30;;;;;;1612004;73;706;-70
2021/07/08 08:47:01;;;;;;;;;;;24.70;54.40;;;;;;1580709;73;1934;-67
2021/07/08 08:49:04;;;;;;;;;;;24.70;54.50;;;;;;1576369;73;744;-67
2021/07/08 08:51:06;;;;;;;;;;;24.70;54.40;;;;;;1571777;73;1132;-67
2021/07/08 08:53:09;;;;;;;;;;;24.70;54.40;;;;;;1583086;73;785;-66
2021/07/08 08:55:10;;;;;;;;;;;24.70;54.40;;;;;;1569822;73;723;-67
2021/07/08 08:57:12;;;;;;;;;;;24.70;54.40;;;;;;1583942;73;790;-69
2021/07/08 08:59:14;;;;;;;;;;;24.70;54.40;;;;;;1610787;73;803;-67
2021/07/08 09:01:19;;;;;;;;;;;24.80;54.40;;;;;;1585301;73;1170;-67
2021/07/08 09:03:28;;;;;;;;;;;24.70;54.20;;;;;;1591912;73;798;-66
2021/07/08 09:05:30;;;;;;;;;;;24.80;54.30;;;;;;1589340;72;832;-65
2021/07/08 09:07:34;;;;;;;;;;;24.70;54.40;;;;;;1573054;73;1940;-66
2021/07/08 09:09:36;;;;;;;;;;;24.80;54.40;;;;;;1593584;73;1654;-67
2021/07/08 09:11:38;;;;;;;;;;;24.80;54.40;;;;;;1578071;73;1122;-67
2021/07/08 09:13:45;;;;;;;;;;;24.70;54.40;;;;;;1577934;73;791;-69
2021/07/08 09:15:46;;;;;;;;;;;24.70;54.50;;;;;;1594470;73;746;-66
2021/07/08 09:17:48;;;;;;;;;;;24.70;54.50;;;;;;1583185;72;713;-67
2021/07/08 09:19:52;;;;;;;;;;;24.70;54.50;;;;;;1580301;73;690;-68
2021/07/08 09:21:56;;;;;;;;;;;24.70;54.60;;;;;;1576520;73;1813;-65
2021/07/08 09:24:14;;;;;;;;;;;24.60;54.40;;;;;;1595129;73;1997;-64
2021/07/08 09:26:16;;;;;;;;;;;24.70;54.60;;;;;;1576443;73;694;-67
2021/07/08 09:28:22;;;;;;;;;;;24.70;54.60;;;;;;1577301;73;1934;-66
2021/07/08 09:30:24;;;;;;;;;;;24.70;54.60;;;;;;1577590;73;1130;-68
2021/07/08 09:32:27;;;;;;;;;;;24.70;54.50;;;;;;1578761;73;789;-65
2021/07/08 09:34:32;;;;;;;;;;;24.70;54.50;;;;;;1570207;73;759;-64
2021/07/08 09:36:34;;;;;;;;;;;24.60;54.40;;;;;;1574689;73;698;-64
2021/07/08 09:38:36;;;;;;;;;;;24.60;54.40;;;;;;1588666;73;711;-65
2021/07/08 09:40:39;;;;;;;;;;;24.70;54.60;;;;;;1567332;73;1134;-65
2021/07/08 09:42:45;;;;;;;;;;;24.70;54.40;;;;;;1573581;73;774;-65
2021/07/08 09:44:47;;;;;;;;;;;24.70;54.40;;;;;;1574866;73;709;-64
2021/07/08 09:46:49;;;;;;;;;;;24.70;54.40;;;;;;1576518;73;768;-66
2021/07/08 09:49:04;;;;;;;;;;;24.70;54.40;;;;;;1575530;73;1946;-66
2021/07/08 09:51:06;;;;;;;;;;;24.70;54.40;;;;;;1562882;73;1194;-68
2021/07/08 09:53:14;;;;;;;;;;;24.70;54.50;;;;;;1572767;73;719;-66
2021/07/08 09:55:19;;;;;;;;;;;24.60;54.40;;;;;;1579162;73;1640;-66
2021/07/08 09:57:32;;;;;;;;;;;24.60;54.40;;;;;;1591343;73;619;-65
2021/07/08 09:59:34;;;;;;;;;;;24.60;54.40;;;;;;1566862;73;1762;-66
2021/07/08 10:01:36;;;;;;;;;;;24.70;54.40;;;;;;1589444;73;1176;-65
2021/07/08 10:03:38;;;;;;;;;;;24.70;54.40;;;;;;1587461;73;734;-67
2021/07/08 10:05:40;;;;;;;;;;;24.70;54.40;;;;;;1592551;73;662;-67
2021/07/08 10:07:42;;;;;;;;;;;24.70;54.50;;;;;;1575794;73;1932;-66
2021/07/08 10:09:44;;;;;;;;;;;24.60;55.00;;;;;;1568943;73;762;-66
2021/07/08 10:11:47;;;;;;;;;;;24.60;55.20;;;;;;1585307;73;1122;-64
2021/07/08 10:13:49;;;;;;;;;;;24.50;55.30;;;;;;1577224;73;764;-65
2021/07/08 10:15:50;;;;;;;;;;;24.50;55.30;;;;;;1593757;73;731;-64
2021/07/08 10:17:52;;;;;;;;;;;24.50;55.30;;;;;;1588903;73;700;-65
2021/07/08 10:19:54;;;;;;;;;;;24.50;55.00;;;;;;1573748;73;789;-66
2021/07/08 10:21:56;;;;;;;;;;;24.50;55.20;;;;;;1577097;73;1132;-65
2021/07/08 10:23:58;;;;;;;;;;;24.60;54.90;;;;;;1583398;73;785;-67
2021/07/08 10:26:01;;;;;;;;;;;24.60;54.90;;;;;;1573663;73;782;-69
2021/07/08 10:28:03;;;;;;;;;;;24.60;54.90;;;;;;1579303;72;1938;-67
2021/07/08 10:30:05;;;;;;;;;;;24.50;55.00;;;;;;1580967;73;684;-68
2021/07/08 10:32:07;;;;;;;;;;;24.50;55.00;;;;;;1570861;73;1066;-66
2021/07/08 10:34:11;;;;;;;;;;;24.50;55.10;;;;;;1602692;73;744;-66
2021/07/08 10:36:12;;;;;;;;;;;24.50;55.10;;;;;;1596249;73;847;-65
2021/07/08 10:38:34;;;;;;;;;;;24.50;55.00;;;;;;1558560;74;1125;-66
2021/07/08 10:40:36;;;;;;;;;;;24.60;55.00;;;;;;1579900;73;1143;-67
2021/07/08 10:42:45;;;;;;;;;;;24.50;55.10;;;;;;1597741;73;734;-66
2021/07/08 10:44:47;;;;;;;;;;;24.50;55.10;;;;;;1592829;73;825;-65
2021/07/08 10:46:49;;;;;;;;;;;24.50;55.10;;;;;;1585785;73;706;-68
2021/07/08 10:48:51;;;;;;;;;;;24.50;55.20;;;;;;1587240;73;1934;-66
2021/07/08 10:50:54;;;;;;;;;;;24.50;55.30;;;;;;1607267;72;1164;-66
2021/07/08 10:52:56;;;;;;;;;;;24.50;55.20;;;;;;1590726;73;791;-66
2021/07/08 10:54:58;;;;;;;;;;;24.50;55.30;;;;;;1601396;73;699;-67
2021/07/08 10:57:00;;;;;;;;;;;24.50;55.30;;;;;;1592307;73;781;-66
2021/07/08 10:59:14;;;;;;;;;;;24.50;55.30;;;;;;1576073;73;717;-67
2021/07/08 11:01:27;;;;;;;;;;;24.50;55.30;;;;;;1586919;73;1163;-67
2021/07/08 11:03:43;;;;;;;;;;;24.50;55.40;;;;;;1575841;73;1133;-65
2021/07/08 11:05:55;;;;;;;;;;;24.50;55.70;;;;;;1591059;73;788;-67
2021/07/08 11:07:58;;;;;;;;;;;24.50;55.60;;;;;;1573729;73;1922;-66
2021/07/08 11:10:05;;;;;;;;;;;24.50;55.70;;;;;;1579069;73;756;-66
2021/07/08 11:12:04;;;;;;;;;;;24.50;55.80;;;;;;1583234;73;1426;-65
2021/07/08 11:14:17;;;;;;;;;;;24.50;55.90;;;;;;1579702;73;712;-66
2021/07/08 11:16:34;;;;;;;;;;;24.50;55.80;;;;;;1580942;73;1580;-65
2021/07/08 11:18:36;;;;;;;;;;;24.50;55.90;;;;;;1585150;72;746;-65
2021/07/08 11:20:38;;;;;;;;;;;24.60;56.00;;;;;;1591953;72;1148;-66
2021/07/08 11:22:40;;;;;;;;;;;24.60;56.00;;;;;;1546398;74;1346;-65
2021/07/08 11:24:54;;;;;;;;;;;24.60;56.00;;;;;;1577410;73;796;-64
2021/07/08 11:26:57;;;;;;;;;;;24.50;56.00;;;;;;1574526;73;1372;-62
2021/07/08 11:29:02;;;;;;;;;;;24.50;56.10;;;;;;1581145;73;1912;-71
2021/07/08 11:31:04;;;;;;;;;;;24.50;56.20;;;;;;1596304;73;1214;-65
2021/07/08 11:33:07;;;;;;;;;;;24.50;56.10;;;;;;1578104;73;782;-66
2021/07/08 11:35:13;;;;;;;;;;;24.60;56.00;;;;;;1578797;73;756;-65
2021/07/08 11:37:13;;;;;;;;;;;24.50;56.10;;;;;;1571757;73;1477;-65
2021/07/08 11:39:15;;;;;;;;;;;24.50;56.30;;;;;;1552566;75;836;-70
2021/07/08 11:41:17;;;;;;;;;;;24.50;56.40;;;;;;1604962;72;1155;-67
2021/07/08 11:43:20;;;;;;;;;;;24.50;56.40;;;;;;1571774;73;739;-66
2021/07/08 11:45:22;;;;;;;;;;;24.50;56.50;;;;;;1589809;73;680;-64
2021/07/08 11:47:24;;;;;;;;;;;24.50;56.60;;;;;;1594130;73;742;-65
2021/07/08 11:49:27;;;;;;;;;;;24.50;56.60;;;;;;1613046;72;1952;-65
2021/07/08 11:51:30;;;;;;;;;;;24.50;56.70;;;;;;1611633;72;1175;-63
2021/07/08 11:53:33;;;;;;;;;;;24.50;56.70;;;;;;1597314;73;803;-64
2021/07/08 11:55:35;;;;;;;;;;;24.50;56.80;;;;;;1602590;73;669;-65
2021/07/08 11:57:51;;;;;;;;;;;24.50;56.80;;;;;;1607860;73;669;-65
2021/07/08 11:59:53;;;;;;;;;;;24.50;56.80;;;;;;1579178;73;1052;-65
2021/07/08 12:01:54;;;;;;;;;;;24.50;56.90;;;;;;1573176;73;1149;-65
2021/07/08 12:03:57;;;;;;;;;;;24.50;57.00;;;;;;1566409;73;708;-67
2021/07/08 12:06:00;;;;;;;;;;;24.50;56.90;;;;;;1581614;73;791;-65
2021/07/08 12:08:05;;;;;;;;;;;24.50;56.90;;;;;;1572900;73;1912;-61
2021/07/08 12:10:06;;;;;;;;;;;24.50;56.90;;;;;;1575224;73;1667;-65
2021/07/08 12:12:08;;;;;;;;;;;24.50;56.80;;;;;;1590245;73;1137;-66
2021/07/08 12:14:16;;;;;;;;;;;24.50;56.70;;;;;;1587934;73;775;-62